sensor_id;sensor_type;location;lat;lon;timestamp;pressure;altitude;pressure_sealevel;temperature;humidity
32324;BME280;25666;44.350;9.222;2022-09-29T00:01:51;99820.13;;;15.50;100.00
32324;BME280;25666;44.350;9.222;2022-09-29T00:04:17;99825.34;;;15.48;100.00
32324;BME280;25666;44.350;9.222;2022-09-29T00:06:46;99834.97;;;15.33;100.00
32324;BME280;25666;44.350;9.222;2022-09-29T00:09:14;99835.44;;;15.07;100.00
32324;BME280;25666;44.350;9.222;2022-09-29T00:11:39;99842.63;;;15.04;100.00
32324;BME280;25666;44.350;9.222;2022-09-29T00:14:05;99838.19;;;15.14;100.00
32324;BME280;25666;44.350;9.222;2022-09-29T00:16:33;99842.19;;;15.27;100.00
32324;BME280;25666;44.350;9.222;2022-09-29T00:18:59;99841.38;;;15.33;100.00
32324;BME280;25666;44.350;9.222;2022-09-29T00:21:24;99836.56;;;15.30;100.00
32324;BME280;25666;44.350;9.222;2022-09-29T00:23:50;99838.59;;;15.23;100.00
32324;BME280;25666;44.350;9.222;2022-09-29T00:26:18;99834.59;;;15.31;100.00
32324;BME280;25666;44.350;9.222;2022-09-29T00:28:50;99825.75;;;15.36;100.00
32324;BME280;25666;44.350;9.222;2022-09-29T00:31:18;99830.16;;;15.33;100.00
32324;BME280;25666;44.350;9.222;2022-09-29T00:33:44;99826.59;;;15.15;100.00
32324;BME280;25666;44.350;9.222;2022-09-29T00:36:12;99828.59;;;15.22;100.00
32324;BME280;25666;44.350;9.222;2022-09-29T00:38:38;99831.34;;;15.32;100.00
32324;BME280;25666;44.350;9.222;2022-09-29T00:41:04;99826.53;;;15.36;100.00
32324;BME280;25666;44.350;9.222;2022-09-29T00:46:12;99844.19;;;15.30;100.00
32324;BME280;25666;44.350;9.222;2022-09-29T00:48:40;99845.78;;;15.38;100.00
32324;BME280;25666;44.350;9.222;2022-09-29T00:51:06;99846.19;;;15.36;100.00
32324;BME280;25666;44.350;9.222;2022-09-29T00:53:32;99839.31;;;15.44;100.00
32324;BME280;25666;44.350;9.222;2022-09-29T00:56:02;99838.13;;;15.45;100.00
32324;BME280;25666;44.350;9.222;2022-09-29T00:58:46;99844.97;;;15.41;100.00
32324;BME280;25666;44.350;9.222;2022-09-29T01:01:15;99830.13;;;15.44;100.00
32324;BME280;25666;44.350;9.222;2022-09-29T01:03:43;99829.34;;;15.40;100.00
32324;BME280;25666;44.350;9.222;2022-09-29T01:06:20;99828.16;;;15.41;100.00
32324;BME280;25666;44.350;9.222;2022-09-29T01:08:51;99822.13;;;15.46;100.00
32324;BME280;25666;44.350;9.222;2022-09-29T01:11:22;99826.56;;;15.50;100.00
32324;BME280;25666;44.350;9.222;2022-09-29T01:13:48;99821.72;;;15.54;100.00
32324;BME280;25666;44.350;9.222;2022-09-29T01:16:13;99812.91;;;15.56;100.00
32324;BME280;25666;44.350;9.222;2022-09-29T01:18:40;99818.91;;;15.47;100.00
32324;BME280;25666;44.350;9.222;2022-09-29T01:39:05;99805.72;;;15.37;100.00
32324;BME280;25666;44.350;9.222;2022-09-29T01:41:49;99798.50;;;15.40;100.00
32324;BME280;25666;44.350;9.222;2022-09-29T01:44:05;99794.91;;;15.36;100.00
32324;BME280;25666;44.350;9.222;2022-09-29T01:46:36;99796.53;;;15.23;100.00
32324;BME280;25666;44.350;9.222;2022-09-29T01:49:03;99792.97;;;15.15;100.00
32324;BME280;25666;44.350;9.222;2022-09-29T01:51:59;99789.75;;;15.13;100.00
32324;BME280;25666;44.350;9.222;2022-09-29T01:54:54;99786.56;;;15.18;100.00
32324;BME280;25666;44.350;9.222;2022-09-29T01:57:55;99800.56;;;15.22;100.00
32324;BME280;25666;44.350;9.222;2022-09-29T02:00:23;99802.56;;;15.14;100.00
32324;BME280;25666;44.350;9.222;2022-09-29T02:03:04;99807.38;;;15.14;100.00
32324;BME280;25666;44.350;9.222;2022-09-29T02:05:46;99808.97;;;15.08;100.00
32324;BME280;25666;44.350;9.222;2022-09-29T02:11:10;99798.16;;;15.13;100.00
32324;BME280;25666;44.350;9.222;2022-09-29T02:14:00;99790.97;;;15.05;100.00
32324;BME280;25666;44.350;9.222;2022-09-29T02:16:30;99798.19;;;15.06;100.00
32324;BME280;25666;44.350;9.222;2022-09-29T02:19:20;99791.78;;;14.95;100.00
32324;BME280;25666;44.350;9.222;2022-09-29T02:21:47;99794.59;;;15.02;100.00
32324;BME280;25666;44.350;9.222;2022-09-29T02:24:14;99789.78;;;14.95;100.00
32324;BME280;25666;44.350;9.222;2022-09-29T02:26:40;99790.59;;;15.07;100.00
32324;BME280;25666;44.350;9.222;2022-09-29T02:29:07;99784.56;;;15.12;100.00
32324;BME280;25666;44.350;9.222;2022-09-29T02:31:34;99783.38;;;15.13;100.00
32324;BME280;25666;44.350;9.222;2022-09-29T02:34:01;99766.13;;;15.07;100.00
32324;BME280;25666;44.350;9.222;2022-09-29T02:53:20;99756.19;;;14.92;100.00
32324;BME280;25666;44.350;9.222;2022-09-29T02:55:49;99764.56;;;14.95;100.00
32324;BME280;25666;44.350;9.222;2022-09-29T02:58:43;99765.38;;;14.92;100.00
32324;BME280;25666;44.350;9.222;2022-09-29T03:01:11;99761.38;;;14.93;100.00
32324;BME280;25666;44.350;9.222;2022-09-29T03:03:39;99764.16;;;15.00;100.00
32324;BME280;25666;44.350;9.222;2022-09-29T03:06:04;99754.97;;;14.89;100.00
32324;BME280;25666;44.350;9.222;2022-09-29T03:08:30;99765.00;;;14.94;100.00
32324;BME280;25666;44.350;9.222;2022-09-29T03:10:56;99760.16;;;14.98;100.00
32324;BME280;25666;44.350;9.222;2022-09-29T03:13:22;99760.59;;;14.89;100.00
32324;BME280;25666;44.350;9.222;2022-09-29T03:15:47;99755.78;;;14.97;100.00
32324;BME280;25666;44.350;9.222;2022-09-29T03:18:13;99752.16;;;15.00;100.00
32324;BME280;25666;44.350;9.222;2022-09-29T03:20:38;99755.72;;;15.11;100.00
32324;BME280;25666;44.350;9.222;2022-09-29T03:23:04;99756.16;;;15.06;100.00
32324;BME280;25666;44.350;9.222;2022-09-29T03:25:29;99746.97;;;14.95;100.00
32324;BME280;25666;44.350;9.222;2022-09-29T03:27:55;99755.75;;;15.00;100.00
32324;BME280;25666;44.350;9.222;2022-09-29T03:30:20;99746.13;;;15.05;100.00
32324;BME280;25666;44.350;9.222;2022-09-29T03:32:48;99751.34;;;15.03;100.00
32324;BME280;25666;44.350;9.222;2022-09-29T03:35:13;99751.34;;;15.07;100.00
32324;BME280;25666;44.350;9.222;2022-09-29T03:37:39;99746.13;;;15.05;100.00
32324;BME280;25666;44.350;9.222;2022-09-29T03:40:05;99750.56;;;15.06;100.00
32324;BME280;25666;44.350;9.222;2022-09-29T03:42:31;99744.94;;;15.10;100.00
32324;BME280;25666;44.350;9.222;2022-09-29T03:44:57;99749.31;;;15.18;100.00
32324;BME280;25666;44.350;9.222;2022-09-29T03:47:23;99743.72;;;15.11;100.00
32324;BME280;25666;44.350;9.222;2022-09-29T03:49:49;99746.50;;;15.18;100.00
32324;BME280;25666;44.350;9.222;2022-09-29T03:52:15;99741.69;;;15.18;100.00
32324;BME280;25666;44.350;9.222;2022-09-29T03:54:40;99742.09;;;15.20;100.00
32324;BME280;25666;44.350;9.222;2022-09-29T03:57:06;99749.25;;;15.32;100.00
32324;BME280;25666;44.350;9.222;2022-09-29T03:59:31;99741.63;;;15.32;100.00
32324;BME280;25666;44.350;9.222;2022-09-29T04:01:57;99739.63;;;15.33;100.00
32324;BME280;25666;44.350;9.222;2022-09-29T04:04:22;99745.66;;;15.28;100.00
32324;BME280;25666;44.350;9.222;2022-09-29T04:06:48;99747.66;;;15.34;100.00
32324;BME280;25666;44.350;9.222;2022-09-29T04:09:13;99753.22;;;15.48;100.00
32324;BME280;25666;44.350;9.222;2022-09-29T04:11:39;99752.38;;;15.59;100.00
32324;BME280;25666;44.350;9.222;2022-09-29T04:14:04;99757.97;;;15.62;100.00
32324;BME280;25666;44.350;9.222;2022-09-29T04:16:30;99759.50;;;15.77;100.00
32324;BME280;25666;44.350;9.222;2022-09-29T04:18:55;99750.75;;;16.23;100.00
32324;BME280;25666;44.350;9.222;2022-09-29T04:21:21;99755.81;;;16.46;100.00
32324;BME280;25666;44.350;9.222;2022-09-29T04:23:46;99751.69;;;17.02;100.00
32324;BME280;25666;44.350;9.222;2022-09-29T04:26:12;99760.63;;;17.31;100.00
32324;BME280;25666;44.350;9.222;2022-09-29T04:28:38;99760.09;;;17.39;100.00
32324;BME280;25666;44.350;9.222;2022-09-29T04:31:04;99773.41;;;17.73;100.00
32324;BME280;25666;44.350;9.222;2022-09-29T04:33:30;99774.09;;;17.80;100.00
32324;BME280;25666;44.350;9.222;2022-09-29T04:35:56;99775.88;;;17.97;100.00
32324;BME280;25666;44.350;9.222;2022-09-29T04:38:22;99771.75;;;18.02;100.00
32324;BME280;25666;44.350;9.222;2022-09-29T04:40:48;99761.66;;;18.04;100.00
32324;BME280;25666;44.350;9.222;2022-09-29T04:43:13;99766.41;;;18.11;100.00
32324;BME280;25666;44.350;9.222;2022-09-29T04:45:39;99760.25;;;18.19;100.00
32324;BME280;25666;44.350;9.222;2022-09-29T04:48:04;99756.94;;;18.25;100.00
32324;BME280;25666;44.350;9.222;2022-09-29T04:50:30;99761.84;;;18.20;100.00
32324;BME280;25666;44.350;9.222;2022-09-29T04:52:56;99761.88;;;18.17;100.00
32324;BME280;25666;44.350;9.222;2022-09-29T04:55:21;99766.16;;;18.29;100.00
32324;BME280;25666;44.350;9.222;2022-09-29T04:57:47;99771.53;;;18.19;100.00
32324;BME280;25666;44.350;9.222;2022-09-29T05:00:13;99777.81;;;18.27;100.00
32324;BME280;25666;44.350;9.222;2022-09-29T05:02:39;99770.13;;;18.31;100.00
32324;BME280;25666;44.350;9.222;2022-09-29T05:05:05;99774.09;;;18.34;100.00
32324;BME280;25666;44.350;9.222;2022-09-29T05:07:34;99772.09;;;18.34;100.00
32324;BME280;25666;44.350;9.222;2022-09-29T05:09:59;99778.94;;;18.33;100.00
32324;BME280;25666;44.350;9.222;2022-09-29T05:12:25;99768.41;;;18.37;100.00
32324;BME280;25666;44.350;9.222;2022-09-29T05:14:50;99776.50;;;18.35;100.00
32324;BME280;25666;44.350;9.222;2022-09-29T05:17:16;99773.44;;;18.53;100.00
32324;BME280;25666;44.350;9.222;2022-09-29T05:19:41;99781.84;;;18.56;100.00
32324;BME280;25666;44.350;9.222;2022-09-29T05:22:06;99784.91;;;18.65;100.00
32324;BME280;25666;44.350;9.222;2022-09-29T05:24:32;99785.75;;;18.62;100.00
32324;BME280;25666;44.350;9.222;2022-09-29T05:26:57;99791.09;;;18.57;100.00
32324;BME280;25666;44.350;9.222;2022-09-29T05:29:23;99790.91;;;18.67;100.00
32324;BME280;25666;44.350;9.222;2022-09-29T05:31:49;99794.09;;;18.69;100.00
32324;BME280;25666;44.350;9.222;2022-09-29T05:34:15;99792.50;;;18.68;100.00
32324;BME280;25666;44.350;9.222;2022-09-29T05:36:40;99791.88;;;18.81;100.00
32324;BME280;25666;44.350;9.222;2022-09-29T05:39:07;99796.72;;;18.80;100.00
32324;BME280;25666;44.350;9.222;2022-09-29T05:41:32;99797.69;;;18.93;100.00
32324;BME280;25666;44.350;9.222;2022-09-29T05:43:58;99799.66;;;18.96;100.00
32324;BME280;25666;44.350;9.222;2022-09-29T05:46:25;99800.47;;;18.97;100.00
32324;BME280;25666;44.350;9.222;2022-09-29T05:48:51;99798.81;;;18.99;100.00
32324;BME280;25666;44.350;9.222;2022-09-29T05:51:19;99801.28;;;18.97;100.00
32324;BME280;25666;44.350;9.222;2022-09-29T05:53:45;99804.44;;;18.99;100.00
32324;BME280;25666;44.350;9.222;2022-09-29T05:56:19;99802.44;;;19.00;100.00
32324;BME280;25666;44.350;9.222;2022-09-29T05:58:45;99804.75;;;19.05;100.00
32324;BME280;25666;44.350;9.222;2022-09-29T06:01:16;99804.03;;;19.01;100.00
32324;BME280;25666;44.350;9.222;2022-09-29T06:03:42;99800.34;;;19.04;100.00
32324;BME280;25666;44.350;9.222;2022-09-29T06:06:10;99803.47;;;19.09;100.00
32324;BME280;25666;44.350;9.222;2022-09-29T06:08:37;99795.81;;;19.10;100.00
32324;BME280;25666;44.350;9.222;2022-09-29T06:11:11;99811.00;;;19.16;100.00
32324;BME280;25666;44.350;9.222;2022-09-29T06:13:38;99809.78;;;19.17;100.00
32324;BME280;25666;44.350;9.222;2022-09-29T06:16:04;99812.97;;;19.19;100.00
32324;BME280;25666;44.350;9.222;2022-09-29T06:18:30;99816.00;;;19.28;100.00
32324;BME280;25666;44.350;9.222;2022-09-29T06:21:06;99823.66;;;19.27;100.00
32324;BME280;25666;44.350;9.222;2022-09-29T06:23:33;99816.53;;;19.23;100.00
32324;BME280;25666;44.350;9.222;2022-09-29T06:26:00;99828.09;;;19.29;100.00
32324;BME280;25666;44.350;9.222;2022-09-29T06:28:27;99828.50;;;19.27;100.00
32324;BME280;25666;44.350;9.222;2022-09-29T06:31:01;99823.25;;;19.29;100.00
32324;BME280;25666;44.350;9.222;2022-09-29T06:33:28;99830.59;;;19.46;100.00
32324;BME280;25666;44.350;9.222;2022-09-29T06:35:54;99821.72;;;19.48;100.00
32324;BME280;25666;44.350;9.222;2022-09-29T06:38:39;99840.44;;;19.58;100.00
32324;BME280;25666;44.350;9.222;2022-09-29T06:41:05;99832.28;;;19.63;100.00
32324;BME280;25666;44.350;9.222;2022-09-29T06:43:31;99828.81;;;19.56;100.00
32324;BME280;25666;44.350;9.222;2022-09-29T06:45:57;99835.66;;;19.55;100.00
32324;BME280;25666;44.350;9.222;2022-09-29T06:48:22;99834.50;;;19.52;100.00
32324;BME280;25666;44.350;9.222;2022-09-29T06:50:48;99836.84;;;19.57;100.00
32324;BME280;25666;44.350;9.222;2022-09-29T06:53:13;99838.66;;;19.48;100.00
32324;BME280;25666;44.350;9.222;2022-09-29T06:55:39;99845.16;;;19.45;100.00
32324;BME280;25666;44.350;9.222;2022-09-29T06:58:04;99841.94;;;19.43;100.00
32324;BME280;25666;44.350;9.222;2022-09-29T07:00:30;99843.50;;;19.47;100.00
32324;BME280;25666;44.350;9.222;2022-09-29T07:02:57;99846.25;;;19.51;100.00
32324;BME280;25666;44.350;9.222;2022-09-29T07:05:23;99836.06;;;19.57;100.00
32324;BME280;25666;44.350;9.222;2022-09-29T07:07:48;99841.56;;;19.64;100.00
32324;BME280;25666;44.350;9.222;2022-09-29T07:10:14;99849.59;;;19.65;100.00
32324;BME280;25666;44.350;9.222;2022-09-29T07:12:40;99850.44;;;19.62;100.00
32324;BME280;25666;44.350;9.222;2022-09-29T07:15:08;99855.44;;;19.55;100.00
32324;BME280;25666;44.350;9.222;2022-09-29T07:17:34;99844.72;;;19.46;100.00
32324;BME280;25666;44.350;9.222;2022-09-29T07:20:00;99833.72;;;19.52;100.00
32324;BME280;25666;44.350;9.222;2022-09-29T07:22:25;99852.47;;;19.62;100.00
32324;BME280;25666;44.350;9.222;2022-09-29T07:24:51;99842.28;;;19.68;100.00
32324;BME280;25666;44.350;9.222;2022-09-29T07:27:18;99837.63;;;19.77;100.00
32324;BME280;25666;44.350;9.222;2022-09-29T07:29:51;99833.53;;;19.82;100.00
32324;BME280;25666;44.350;9.222;2022-09-29T07:32:18;99838.50;;;19.74;100.00
32324;BME280;25666;44.350;9.222;2022-09-29T07:34:43;99844.44;;;19.80;100.00
32324;BME280;25666;44.350;9.222;2022-09-29T07:37:10;99851.91;;;19.90;100.00
32324;BME280;25666;44.350;9.222;2022-09-29T07:39:35;99847.56;;;19.86;100.00
32324;BME280;25666;44.350;9.222;2022-09-29T07:42:01;99853.34;;;19.78;100.00
32324;BME280;25666;44.350;9.222;2022-09-29T07:44:28;99850.75;;;19.88;100.00
32324;BME280;25666;44.350;9.222;2022-09-29T07:46:56;99857.84;;;19.76;100.00
32324;BME280;25666;44.350;9.222;2022-09-29T07:49:21;99856.13;;;19.82;100.00
32324;BME280;25666;44.350;9.222;2022-09-29T07:51:47;99867.34;;;19.86;100.00
32324;BME280;25666;44.350;9.222;2022-09-29T07:54:12;99880.13;;;19.70;100.00
32324;BME280;25666;44.350;9.222;2022-09-29T07:56:38;99874.31;;;19.58;100.00
32324;BME280;25666;44.350;9.222;2022-09-29T07:59:04;99874.31;;;19.58;100.00
32324;BME280;25666;44.350;9.222;2022-09-29T08:01:29;99879.19;;;19.57;100.00
32324;BME280;25666;44.350;9.222;2022-09-29T08:03:56;99887.31;;;19.75;100.00
32324;BME280;25666;44.350;9.222;2022-09-29T08:06:25;99893.38;;;19.73;100.00
32324;BME280;25666;44.350;9.222;2022-09-29T08:08:51;99884.63;;;19.68;100.00
32324;BME280;25666;44.350;9.222;2022-09-29T08:11:18;99885.78;;;19.70;100.00
32324;BME280;25666;44.350;9.222;2022-09-29T08:13:45;99893.38;;;19.73;100.00
32324;BME280;25666;44.350;9.222;2022-09-29T08:16:13;99896.00;;;20.04;100.00
32324;BME280;25666;44.350;9.222;2022-09-29T08:18:39;99882.91;;;20.13;100.00
32324;BME280;25666;44.350;9.222;2022-09-29T08:21:05;99880.34;;;19.99;100.00
32324;BME280;25666;44.350;9.222;2022-09-29T08:23:39;99882.97;;;20.10;100.00
32324;BME280;25666;44.350;9.222;2022-09-29T08:26:06;99880.75;;;20.57;100.00
32324;BME280;25666;44.350;9.222;2022-09-29T08:28:34;99879.00;;;20.63;100.00
32324;BME280;25666;44.350;9.222;2022-09-29T08:31:08;99890.13;;;20.34;100.00
32324;BME280;25666;44.350;9.222;2022-09-29T08:33:34;99886.63;;;20.46;100.00
32324;BME280;25666;44.350;9.222;2022-09-29T08:36:01;99889.84;;;20.64;100.00
32324;BME280;25666;44.350;9.222;2022-09-29T08:38:30;99885.06;;;20.61;100.00
32324;BME280;25666;44.350;9.222;2022-09-29T08:40:56;99888.63;;;20.65;100.00
32324;BME280;25666;44.350;9.222;2022-09-29T08:43:36;99894.63;;;20.51;100.00
32324;BME280;25666;44.350;9.222;2022-09-29T08:46:09;99896.50;;;20.74;100.00
32324;BME280;25666;44.350;9.222;2022-09-29T08:48:40;99902.16;;;20.90;100.00
32324;BME280;25666;44.350;9.222;2022-09-29T08:51:30;99900.13;;;20.91;100.00
32324;BME280;25666;44.350;9.222;2022-09-29T08:54:21;99896.09;;;20.92;100.00
32324;BME280;25666;44.350;9.222;2022-09-29T08:56:48;99892.59;;;20.68;100.00
32324;BME280;25666;44.350;9.222;2022-09-29T08:59:14;99896.56;;;20.54;100.00
32324;BME280;25666;44.350;9.222;2022-09-29T09:07:37;99901.91;;;20.49;100.00
32324;BME280;25666;44.350;9.222;2022-09-29T09:10:30;99909.66;;;20.28;100.00
32324;BME280;25666;44.350;9.222;2022-09-29T09:24:46;99934.91;;;20.55;100.00
32324;BME280;25666;44.350;9.222;2022-09-29T09:27:15;99919.81;;;20.62;100.00
32324;BME280;25666;44.350;9.222;2022-09-29T09:29:47;99917.94;;;20.55;100.00
32324;BME280;25666;44.350;9.222;2022-09-29T09:32:23;99925.50;;;20.42;100.00
32324;BME280;25666;44.350;9.222;2022-09-29T09:34:58;99922.22;;;20.44;100.00
32324;BME280;25666;44.350;9.222;2022-09-29T09:37:33;99914.94;;;20.62;100.00
32324;BME280;25666;44.350;9.222;2022-09-29T09:40:12;99918.94;;;20.65;100.00
32324;BME280;25666;44.350;9.222;2022-09-29T09:42:42;99914.78;;;20.69;100.00
32324;BME280;25666;44.350;9.222;2022-09-29T09:45:28;99912.91;;;20.63;100.00
32324;BME280;25666;44.350;9.222;2022-09-29T09:48:13;99907.50;;;20.52;100.00
32324;BME280;25666;44.350;9.222;2022-09-29T09:50:41;99922.56;;;20.65;100.00
32324;BME280;25666;44.350;9.222;2022-09-29T09:56:21;99917.97;;;20.71;100.00
32324;BME280;25666;44.350;9.222;2022-09-29T10:01:19;99931.22;;;20.74;100.00
32324;BME280;25666;44.350;9.222;2022-09-29T10:03:46;99924.78;;;20.74;100.00
32324;BME280;25666;44.350;9.222;2022-09-29T10:06:12;99926.19;;;20.66;100.00
32324;BME280;25666;44.350;9.222;2022-09-29T10:08:39;99924.97;;;20.67;100.00
32324;BME280;25666;44.350;9.222;2022-09-29T10:11:22;99915.41;;;20.61;100.00
32324;BME280;25666;44.350;9.222;2022-09-29T10:13:55;99915.66;;;20.66;100.00
32324;BME280;25666;44.350;9.222;2022-09-29T10:16:27;99916.09;;;20.65;100.00
32324;BME280;25666;44.350;9.222;2022-09-29T10:18:56;99916.97;;;20.62;100.00
32324;BME280;25666;44.350;9.222;2022-09-29T10:23:54;99924.25;;;20.79;100.00
32324;BME280;25666;44.350;9.222;2022-09-29T10:26:47;99920.09;;;20.67;100.00
32324;BME280;25666;44.350;9.222;2022-09-29T10:29:41;99925.38;;;20.65;100.00
32324;BME280;25666;44.350;9.222;2022-09-29T10:34:39;99921.28;;;20.86;100.00
32324;BME280;25666;44.350;9.222;2022-09-29T10:42:41;99922.66;;;20.78;100.00
32324;BME280;25666;44.350;9.222;2022-09-29T10:45:12;99922.94;;;20.83;100.00
32324;BME280;25666;44.350;9.222;2022-09-29T10:47:38;99923.28;;;20.69;100.00
32324;BME280;25666;44.350;9.222;2022-09-29T10:52:47;99912.94;;;20.43;100.00
32324;BME280;25666;44.350;9.222;2022-09-29T10:55:35;99924.66;;;20.61;100.00
32324;BME280;25666;44.350;9.222;2022-09-29T10:58:32;99928.16;;;20.85;100.00
32324;BME280;25666;44.350;9.222;2022-09-29T11:01:09;99925.53;;;20.94;100.00
32324;BME280;25666;44.350;9.222;2022-09-29T11:03:38;99943.50;;;20.68;100.00
32324;BME280;25666;44.350;9.222;2022-09-29T11:06:10;99936.00;;;20.77;100.00
32324;BME280;25666;44.350;9.222;2022-09-29T11:08:57;99939.06;;;20.51;100.00
32324;BME280;25666;44.350;9.222;2022-09-29T11:11:37;99942.28;;;20.49;100.00
32324;BME280;25666;44.350;9.222;2022-09-29T11:14:03;99938.31;;;20.47;100.00
32324;BME280;25666;44.350;9.222;2022-09-29T11:16:36;99935.09;;;20.28;100.00
32324;BME280;25666;44.350;9.222;2022-09-29T11:19:08;99938.09;;;20.18;100.00
32324;BME280;25666;44.350;9.222;2022-09-29T11:29:52;99940.16;;;20.73;100.00
32324;BME280;25666;44.350;9.222;2022-09-29T11:32:36;99944.38;;;20.65;100.00
32324;BME280;25666;44.350;9.222;2022-09-29T11:35:31;99940.78;;;20.80;100.00
32324;BME280;25666;44.350;9.222;2022-09-29T11:41:25;99942.97;;;21.09;100.00
32324;BME280;25666;44.350;9.222;2022-09-29T11:43:57;99941.16;;;20.82;100.00
32324;BME280;25666;44.350;9.222;2022-09-29T11:51:57;99952.03;;;20.84;100.00
32324;BME280;25666;44.350;9.222;2022-09-29T11:57:33;99943.47;;;20.88;100.00
32324;BME280;25666;44.350;9.222;2022-09-29T12:00:11;99940.34;;;20.82;100.00
32324;BME280;25666;44.350;9.222;2022-09-29T12:09:55;99929.28;;;20.71;100.00
32324;BME280;25666;44.350;9.222;2022-09-29T12:14:49;99931.00;;;20.49;100.00
32324;BME280;25666;44.350;9.222;2022-09-29T12:17:20;99924.50;;;20.68;100.00
32324;BME280;25666;44.350;9.222;2022-09-29T12:19:57;99928.41;;;20.74;100.00
32324;BME280;25666;44.350;9.222;2022-09-29T12:22:26;99924.97;;;20.99;100.00
32324;BME280;25666;44.350;9.222;2022-09-29T12:24:54;99930.16;;;20.68;100.00
32324;BME280;25666;44.350;9.222;2022-09-29T12:27:32;99925.09;;;20.60;100.00
32324;BME280;25666;44.350;9.222;2022-09-29T12:32:39;99926.03;;;20.73;100.00
32324;BME280;25666;44.350;9.222;2022-09-29T12:35:15;99924.50;;;21.20;100.00
32324;BME280;25666;44.350;9.222;2022-09-29T12:38:19;99922.75;;;21.26;100.00
32324;BME280;25666;44.350;9.222;2022-09-29T12:41:12;99927.06;;;21.15;100.00
32324;BME280;25666;44.350;9.222;2022-09-29T12:43:47;99927.53;;;20.94;100.00
32324;BME280;25666;44.350;9.222;2022-09-29T12:46:23;99920.94;;;21.00;100.00
32324;BME280;25666;44.350;9.222;2022-09-29T12:51:46;99944.28;;;21.04;100.00
32324;BME280;25666;44.350;9.222;2022-09-29T12:54:35;99942.47;;;21.14;100.00
32324;BME280;25666;44.350;9.222;2022-09-29T12:57:14;99945.16;;;21.01;100.00
32324;BME280;25666;44.350;9.222;2022-09-29T12:59:56;99947.09;;;20.88;100.00
32324;BME280;25666;44.350;9.222;2022-09-29T13:13:26;99939.38;;;20.72;100.00
32324;BME280;25666;44.350;9.222;2022-09-29T13:19:09;99937.66;;;20.59;100.00
32324;BME280;25666;44.350;9.222;2022-09-29T13:22:40;99939.44;;;20.69;100.00
32324;BME280;25666;44.350;9.222;2022-09-29T13:24:40;99939.72;;;20.74;100.00
32324;BME280;25666;44.350;9.222;2022-09-29T13:27:24;99954.13;;;20.64;100.00
32324;BME280;25666;44.350;9.222;2022-09-29T13:30:11;99938.84;;;20.77;100.00
32324;BME280;25666;44.350;9.222;2022-09-29T13:32:44;99933.72;;;20.72;100.00
32324;BME280;25666;44.350;9.222;2022-09-29T13:35:17;99938.91;;;20.74;100.00
32324;BME280;25666;44.350;9.222;2022-09-29T13:37:48;99942.81;;;20.64;100.00
32324;BME280;25666;44.350;9.222;2022-09-29T13:40:24;99933.06;;;20.65;100.00
32324;BME280;25666;44.350;9.222;2022-09-29T13:42:54;99940.06;;;20.60;100.00
32324;BME280;25666;44.350;9.222;2022-09-29T13:47:54;99941.63;;;20.61;100.00
32324;BME280;25666;44.350;9.222;2022-09-29T14:01:29;99947.38;;;20.58;100.00
32324;BME280;25666;44.350;9.222;2022-09-29T14:03:56;99946.44;;;20.45;100.00
32324;BME280;25666;44.350;9.222;2022-09-29T14:06:24;99954.94;;;20.45;100.00
32324;BME280;25666;44.350;9.222;2022-09-29T14:11:29;99950.09;;;20.45;100.00
32324;BME280;25666;44.350;9.222;2022-09-29T14:14:07;99959.13;;;20.37;100.00
32324;BME280;25666;44.350;9.222;2022-09-29T14:16:52;99955.34;;;20.43;100.00
32324;BME280;25666;44.350;9.222;2022-09-29T14:29:48;99973.50;;;20.03;100.00
32324;BME280;25666;44.350;9.222;2022-09-29T14:32:38;99964.16;;;20.06;100.00
32324;BME280;25666;44.350;9.222;2022-09-29T14:37:39;99970.69;;;20.03;100.00
32324;BME280;25666;44.350;9.222;2022-09-29T14:40:06;99972.13;;;19.91;100.00
32324;BME280;25666;44.350;9.222;2022-09-29T14:43:10;99969.59;;;19.97;100.00
32324;BME280;25666;44.350;9.222;2022-09-29T14:54:51;99977.38;;;20.12;100.00
32324;BME280;25666;44.350;9.222;2022-09-29T15:02:27;99968.31;;;20.21;100.00
32324;BME280;25666;44.350;9.222;2022-09-29T15:04:53;99970.03;;;20.15;100.00
32324;BME280;25666;44.350;9.222;2022-09-29T15:07:22;99970.50;;;20.13;100.00
32324;BME280;25666;44.350;9.222;2022-09-29T15:09:58;99977.72;;;20.14;100.00
32324;BME280;25666;44.350;9.222;2022-09-29T15:12:26;99966.19;;;20.05;100.00
32324;BME280;25666;44.350;9.222;2022-09-29T15:14:54;99968.00;;;19.96;100.00
32324;BME280;25666;44.350;9.222;2022-09-29T15:25:55;99963.16;;;19.96;100.00
32324;BME280;25666;44.350;9.222;2022-09-29T15:30:51;99970.75;;;19.99;100.00
32324;BME280;25666;44.350;9.222;2022-09-29T15:33:27;99971.34;;;20.10;100.00
32324;BME280;25666;44.350;9.222;2022-09-29T15:35:59;99967.00;;;20.06;100.00
32324;BME280;25666;44.350;9.222;2022-09-29T15:38:29;99972.66;;;20.06;100.00
32324;BME280;25666;44.350;9.222;2022-09-29T15:41:00;99970.34;;;20.01;100.00
32324;BME280;25666;44.350;9.222;2022-09-29T15:43:29;99971.56;;;20.00;100.00
32324;BME280;25666;44.350;9.222;2022-09-29T15:46:00;99962.22;;;20.03;100.00
32324;BME280;25666;44.350;9.222;2022-09-29T15:48:28;99963.72;;;19.88;100.00
32324;BME280;25666;44.350;9.222;2022-09-29T15:50:53;99968.91;;;19.89;100.00
32324;BME280;25666;44.350;9.222;2022-09-29T15:53:21;99964.06;;;19.90;100.00
32324;BME280;25666;44.350;9.222;2022-09-29T15:55:49;99960.53;;;19.86;100.00
32324;BME280;25666;44.350;9.222;2022-09-29T15:58:34;99977.56;;;19.82;100.00
32324;BME280;25666;44.350;9.222;2022-09-29T16:01:02;99970.88;;;19.72;100.00
32324;BME280;25666;44.350;9.222;2022-09-29T16:06:26;99976.56;;;19.69;100.00
32324;BME280;25666;44.350;9.222;2022-09-29T16:08:55;99969.31;;;19.68;100.00
32324;BME280;25666;44.350;9.222;2022-09-29T16:11:26;99966.50;;;19.68;100.00